Time;durP1;ratioP1;P1;durP2;ratioP2;P2;SDS_P1;SDS_P2;PMS_P1;PMS_P2;Temp;Humidity;BMP_temperature;BMP_pressure;BME280_temperature;BME280_humidity;BME280_pressure;Samples;Min_cycle;Max_cycle;Signal;HPM_P1;HPM_P2
2022/10/16 00:00:44;;;;;;;3.53;1.50;;;15.50;99.90;;;;;;5058937;28;20064;-41
2022/10/16 00:03:10;;;;;;;0.95;0.93;;;15.40;99.90;;;;;;5056652;28;20024;-43
2022/10/16 00:05:43;;;;;;;0.93;0.88;;;15.40;99.90;;;;;;5066047;28;20024;-42
2022/10/16 00:08:13;;;;;;;2.28;1.20;;;15.30;99.90;;;;;;5059095;28;20371;-42
2022/10/16 00:10:39;;;;;;;4.90;1.33;;;15.30;99.90;;;;;;5051430;28;20029;-42
2022/10/16 00:13:05;;;;;;;3.65;1.15;;;15.30;99.90;;;;;;5068926;28;20039;-43
2022/10/16 00:15:35;;;;;;;1.20;1.10;;;15.20;99.90;;;;;;5085919;28;20035;-43
2022/10/16 00:18:01;;;;;;;2.92;1.38;;;15.20;99.90;;;;;;5082431;28;20580;-43
2022/10/16 00:20:27;;;;;;;1.45;1.25;;;15.20;99.90;;;;;;5084829;28;20111;-43
2022/10/16 00:22:52;;;;;;;3.15;1.48;;;15.20;99.90;;;;;;5092243;28;20107;-42
2022/10/16 00:25:17;;;;;;;6.25;1.15;;;15.10;99.90;;;;;;5074984;28;20074;-42
2022/10/16 00:27:43;;;;;;;3.95;1.20;;;15.10;99.90;;;;;;5087141;28;20039;-42
2022/10/16 00:30:09;;;;;;;1.90;1.25;;;15.10;99.90;;;;;;5092680;28;20066;-42
2022/10/16 00:32:34;;;;;;;3.30;1.42;;;15.00;99.90;;;;;;5081008;28;20030;-43
2022/10/16 00:35:00;;;;;;;5.93;1.65;;;14.90;99.90;;;;;;5089679;28;20021;-41
2022/10/16 00:37:25;;;;;;;5.22;1.70;;;14.90;99.90;;;;;;5091170;28;20073;-42
2022/10/16 00:39:51;;;;;;;2.50;1.50;;;14.80;99.90;;;;;;5079529;28;20021;-42
2022/10/16 00:42:18;;;;;;;4.93;1.58;;;14.70;99.90;;;;;;5091614;28;20024;-42
2022/10/16 00:44:57;;;;;;;3.50;1.48;;;14.70;99.90;;;;;;5092347;28;20035;-42
2022/10/16 00:47:39;;;;;;;2.85;2.03;;;14.70;99.90;;;;;;5090062;28;20091;-42
2022/10/16 00:50:13;;;;;;;2.67;1.60;;;14.70;99.90;;;;;;5083632;28;20028;-42
2022/10/16 00:52:43;;;;;;;4.88;1.60;;;14.70;99.90;;;;;;5091280;28;20104;-42
2022/10/16 00:55:09;;;;;;;2.85;1.73;;;14.60;99.90;;;;;;5092381;28;20028;-43
2022/10/16 00:57:35;;;;;;;3.25;1.67;;;14.60;99.90;;;;;;5091225;28;20305;-42
2022/10/16 01:00:05;;;;;;;5.65;1.63;;;14.60;99.90;;;;;;5091234;28;20024;-43
2022/10/16 01:02:30;;;;;;;4.00;1.95;;;14.50;99.90;;;;;;5091492;28;20047;-45
2022/10/16 01:04:56;;;;;;;3.30;1.83;;;14.50;99.90;;;;;;5091086;28;20036;-42
2022/10/16 01:07:36;;;;;;;12.43;2.25;;;14.50;99.90;;;;;;5091936;28;20024;-43
2022/10/16 01:10:32;;;;;;;6.85;1.98;;;14.50;99.90;;;;;;5091909;28;20045;-42
2022/10/16 01:13:04;;;;;;;2.80;1.70;;;14.50;99.90;;;;;;5082050;28;20031;-44
2022/10/16 01:15:38;;;;;;;5.03;2.30;;;14.50;99.90;;;;;;5090403;28;20024;-43
2022/10/16 01:18:18;;;;;;;3.72;1.95;;;14.50;99.90;;;;;;5089174;28;20516;-42
2022/10/16 01:21:08;;;;;;;5.13;1.67;;;14.50;99.90;;;;;;5086424;28;20031;-43
2022/10/16 01:24:10;;;;;;;2.72;1.85;;;14.50;99.90;;;;;;5077590;28;20059;-41
2022/10/16 01:27:03;;;;;;;3.10;1.90;;;14.40;99.90;;;;;;5051476;28;20024;-45
2022/10/16 01:29:34;;;;;;;4.07;1.63;;;14.40;99.90;;;;;;5051531;28;20057;-45
2022/10/16 01:32:01;;;;;;;;;;;14.40;99.90;;;;;;5051423;28;20036;-43
2022/10/16 01:34:38;;;;;;;2.15;1.85;;;14.40;99.90;;;;;;5051158;28;19905;-45
2022/10/16 01:37:12;;;;;;;9.95;1.88;;;14.40;99.90;;;;;;5050880;28;20110;-43
2022/10/16 01:39:40;;;;;;;2.83;1.83;;;14.30;99.90;;;;;;5051080;28;20029;-45
2022/10/16 01:42:18;;;;;;;5.05;1.92;;;14.30;99.90;;;;;;5050514;28;20070;-44
2022/10/16 01:44:47;;;;;;;5.97;2.13;;;14.30;99.90;;;;;;5050799;28;20371;-43
2022/10/16 01:47:14;;;;;;;4.80;2.15;;;14.30;99.90;;;;;;5051046;28;20040;-43
2022/10/16 01:49:41;;;;;;;4.88;2.20;;;14.30;99.90;;;;;;5051032;28;20032;-43
2022/10/16 01:52:12;;;;;;;3.33;2.00;;;14.20;99.90;;;;;;5053012;28;20035;-45
2022/10/16 01:54:42;;;;;;;6.03;2.45;;;14.20;99.90;;;;;;5082610;28;20012;-46
2022/10/16 01:57:08;;;;;;;4.95;2.13;;;14.10;99.90;;;;;;5090911;28;20354;-42
2022/10/16 01:59:39;;;;;;;3.92;2.30;;;14.10;99.90;;;;;;5091109;28;20031;-46
2022/10/16 02:02:07;;;;;;;4.35;1.83;;;14.10;99.90;;;;;;5090533;28;20115;-43
2022/10/16 02:04:37;;;;;;;5.93;2.30;;;14.10;99.90;;;;;;5091040;28;20486;-44
2022/10/16 02:07:03;;;;;;;4.05;1.92;;;14.10;99.90;;;;;;5090693;28;20020;-42
2022/10/16 02:09:32;;;;;;;2.88;1.98;;;14.10;99.90;;;;;;5090936;28;20030;-42
2022/10/16 02:12:02;;;;;;;5.90;2.40;;;14.10;99.90;;;;;;5090561;28;20039;-43
2022/10/16 02:14:28;;;;;;;3.33;2.30;;;14.00;99.90;;;;;;5089687;28;20027;-41
2022/10/16 02:16:54;;;;;;;6.35;2.50;;;14.00;99.90;;;;;;5089314;28;20482;-46
2022/10/16 02:19:21;;;;;;;2.72;2.47;;;14.00;99.90;;;;;;5090597;28;20042;-43
2022/10/16 02:21:59;;;;;;;5.53;2.40;;;14.00;99.90;;;;;;5084790;28;20012;-47
2022/10/16 02:24:39;;;;;;;3.30;2.40;;;14.00;99.90;;;;;;5052958;28;20497;-42
2022/10/16 02:27:40;;;;;;;6.05;2.50;;;14.00;99.90;;;;;;5070636;28;20380;-43
2022/10/16 02:30:19;;;;;;;3.13;2.30;;;14.00;99.90;;;;;;5037135;28;20488;-45
2022/10/16 02:32:47;;;;;;;4.47;2.30;;;14.00;99.90;;;;;;5069765;28;20396;-46
2022/10/16 02:35:15;;;;;;;9.80;2.40;;;14.00;99.90;;;;;;5070590;28;20115;-44
2022/10/16 02:37:41;;;;;;;2.20;2.00;;;14.00;99.90;;;;;;5068843;28;20055;-42
2022/10/16 02:40:07;;;;;;;6.45;2.60;;;14.00;99.90;;;;;;5070569;28;20017;-43
2022/10/16 02:42:36;;;;;;;4.45;2.60;;;14.00;99.90;;;;;;5070044;28;20025;-43
2022/10/16 02:45:03;;;;;;;6.43;2.40;;;14.00;99.90;;;;;;5070298;28;20431;-44
2022/10/16 02:47:29;;;;;;;3.05;2.20;;;14.00;99.90;;;;;;5069930;28;20020;-43
2022/10/16 02:49:54;;;;;;;2.40;1.60;;;14.00;99.90;;;;;;5070036;28;20032;-42
2022/10/16 02:52:20;;;;;;;4.20;2.25;;;14.00;99.90;;;;;;5069816;28;20055;-42
2022/10/16 02:54:46;;;;;;;4.50;2.03;;;14.10;99.90;;;;;;5081824;28;20085;-44
2022/10/16 02:57:11;;;;;;;8.02;2.30;;;14.10;99.90;;;;;;5090023;28;20024;-43
2022/10/16 02:59:37;;;;;;;2.25;2.00;;;14.10;99.90;;;;;;5088491;28;20047;-44
2022/10/16 03:02:03;;;;;;;6.47;3.13;;;14.10;99.90;;;;;;5083424;28;20104;-42
2022/10/16 03:04:28;;;;;;;4.65;2.30;;;14.10;99.90;;;;;;5081397;28;20493;-46
2022/10/16 03:06:54;;;;;;;2.72;2.45;;;14.10;99.90;;;;;;5089952;28;20481;-47
2022/10/16 03:09:19;;;;;;;3.97;2.35;;;14.10;99.90;;;;;;5089642;28;20077;-46
2022/10/16 03:11:45;;;;;;;3.30;2.30;;;14.10;99.90;;;;;;5089235;28;20074;-43
2022/10/16 03:14:10;;;;;;;3.83;2.15;;;14.10;99.90;;;;;;5089721;28;20058;-44
2022/10/16 03:16:35;;;;;;;2.63;2.30;;;14.10;99.90;;;;;;5089871;28;20066;-43
2022/10/16 03:19:02;;;;;;;5.80;2.58;;;14.10;99.90;;;;;;5089941;28;20522;-42
2022/10/16 03:21:27;;;;;;;2.65;2.45;;;14.10;99.90;;;;;;5089207;28;20469;-43
2022/10/16 03:23:52;;;;;;;6.35;2.13;;;14.10;99.90;;;;;;5074823;28;20024;-44
2022/10/16 03:26:18;;;;;;;3.22;2.67;;;14.10;99.90;;;;;;5089023;28;20035;-42
2022/10/16 03:28:43;;;;;;;5.97;2.80;;;14.10;99.90;;;;;;5089466;28;20020;-43
2022/10/16 03:31:09;;;;;;;4.28;2.50;;;14.10;99.90;;;;;;5090071;28;20024;-43
2022/10/16 03:33:34;;;;;;;7.22;3.50;;;14.10;99.90;;;;;;5087882;28;20024;-45
2022/10/16 03:36:00;;;;;;;5.68;2.90;;;14.00;99.90;;;;;;5089729;28;20024;-43
2022/10/16 03:38:25;;;;;;;5.35;2.67;;;14.00;99.90;;;;;;5089366;28;20031;-43
2022/10/16 03:40:51;;;;;;;6.90;2.70;;;13.90;99.90;;;;;;5090428;28;20024;-46
2022/10/16 03:43:17;;;;;;;3.78;2.75;;;13.90;99.90;;;;;;5093101;28;20035;-44
2022/10/16 03:45:42;;;;;;;6.88;2.95;;;13.90;99.90;;;;;;5093871;28;20028;-44
2022/10/16 03:48:07;;;;;;;5.78;2.83;;;13.90;99.90;;;;;;5093473;28;20115;-42
2022/10/16 03:50:33;;;;;;;5.45;2.70;;;13.90;99.90;;;;;;5093469;28;20032;-44
2022/10/16 03:52:58;;;;;;;5.63;2.88;;;13.80;99.90;;;;;;5087713;28;20370;-42
2022/10/16 03:55:24;;;;;;;5.78;2.72;;;13.80;99.90;;;;;;5085051;28;20032;-43
2022/10/16 03:57:49;;;;;;;6.85;2.72;;;13.80;99.90;;;;;;5093227;28;20043;-42
2022/10/16 04:00:15;;;;;;;6.65;2.92;;;13.80;99.90;;;;;;5093228;28;20789;-44
2022/10/16 04:02:40;;;;;;;3.83;2.40;;;13.80;99.90;;;;;;5092967;28;20103;-42
2022/10/16 04:05:06;;;;;;;8.63;2.45;;;13.80;99.90;;;;;;5091783;28;20020;-46
2022/10/16 04:07:32;;;;;;;2.63;2.40;;;13.80;99.90;;;;;;5093006;28;20031;-47
2022/10/16 04:09:58;;;;;;;3.45;2.50;;;13.80;99.90;;;;;;5093224;28;20028;-43
2022/10/16 04:12:25;;;;;;;11.27;3.17;;;13.80;99.90;;;;;;5092659;28;20062;-46
2022/10/16 04:14:51;;;;;;;7.75;2.97;;;13.80;99.90;;;;;;5092966;28;20046;-42
2022/10/16 04:17:16;;;;;;;4.85;2.90;;;13.90;99.90;;;;;;5092969;28;20024;-42
2022/10/16 04:19:42;;;;;;;8.30;3.40;;;13.90;99.90;;;;;;5092779;28;20477;-46
2022/10/16 04:22:07;;;;;;;4.50;2.58;;;13.90;99.90;;;;;;5086974;28;20020;-43
2022/10/16 04:24:33;;;;;;;6.80;3.08;;;13.90;99.90;;;;;;5084312;28;20027;-43
2022/10/16 04:26:58;;;;;;;5.00;2.40;;;13.90;99.90;;;;;;5092754;28;20131;-45
2022/10/16 04:29:24;;;;;;;4.38;2.75;;;13.90;99.90;;;;;;5092706;28;20023;-44
2022/10/16 04:31:49;;;;;;;5.03;3.08;;;13.80;99.90;;;;;;5092164;28;20032;-46
2022/10/16 04:34:15;;;;;;;8.63;3.20;;;13.80;99.90;;;;;;5092771;28;20388;-44
2022/10/16 04:36:40;;;;;;;7.28;2.75;;;13.80;99.90;;;;;;5092626;28;20059;-43
2022/10/16 04:39:06;;;;;;;9.02;3.35;;;13.80;99.90;;;;;;5092388;28;20484;-44
2022/10/16 04:41:31;;;;;;;5.65;2.70;;;13.80;99.90;;;;;;5081061;28;20078;-42
2022/10/16 04:43:56;;;;;;;6.00;2.95;;;13.70;99.90;;;;;;5072147;28;20448;-45
2022/10/16 04:46:22;;;;;;;7.65;2.90;;;13.70;99.90;;;;;;5071999;28;20039;-42
2022/10/16 04:48:48;;;;;;;4.22;2.97;;;13.70;99.90;;;;;;5069994;28;20044;-42
2022/10/16 04:51:13;;;;;;;5.90;2.67;;;13.70;99.90;;;;;;5055137;28;20441;-43
2022/10/16 04:53:39;;;;;;;5.35;3.05;;;13.70;99.90;;;;;;5065841;28;20091;-43
2022/10/16 04:56:04;;;;;;;7.53;3.30;;;13.70;99.90;;;;;;5063933;28;20073;-42
2022/10/16 04:58:30;;;;;;;6.15;3.20;;;13.60;99.90;;;;;;5061313;28;20497;-42
2022/10/16 05:00:55;;;;;;;9.75;3.13;;;13.60;99.90;;;;;;5051856;28;20021;-43
2022/10/16 05:03:21;;;;;;;7.45;3.67;;;13.60;99.90;;;;;;5052741;28;20024;-43
2022/10/16 05:05:47;;;;;;;7.70;3.38;;;13.50;99.90;;;;;;5057167;28;20020;-45
2022/10/16 05:08:16;;;;;;;8.23;3.10;;;13.60;99.90;;;;;;5051059;28;20130;-43
2022/10/16 05:10:43;;;;;;;3.88;2.97;;;13.60;99.90;;;;;;5051614;28;20033;-43
2022/10/16 05:13:09;;;;;;;10.95;2.80;;;13.60;99.90;;;;;;5051216;28;20102;-43
2022/10/16 05:15:35;;;;;;;6.82;2.85;;;13.60;99.90;;;;;;5051648;28;20029;-43
2022/10/16 05:18:00;;;;;;;3.53;2.58;;;13.60;99.90;;;;;;5050226;28;20040;-44
2022/10/16 05:20:26;;;;;;;5.63;2.67;;;13.60;99.90;;;;;;5051860;28;20025;-42
2022/10/16 05:22:51;;;;;;;3.53;2.63;;;13.50;99.90;;;;;;5065244;28;20124;-43
2022/10/16 05:25:17;;;;;;;5.80;3.03;;;13.50;99.90;;;;;;5082305;28;20028;-45
2022/10/16 05:27:42;;;;;;;5.97;3.13;;;13.50;99.90;;;;;;5089934;28;20023;-44
2022/10/16 05:30:08;;;;;;;5.85;3.20;;;13.50;99.90;;;;;;5088709;28;20028;-43
2022/10/16 05:32:34;;;;;;;6.50;3.50;;;13.60;99.90;;;;;;5086313;28;20024;-42
2022/10/16 05:34:59;;;;;;;6.82;3.13;;;13.60;99.90;;;;;;5069666;28;20103;-43
2022/10/16 05:37:26;;;;;;;8.15;3.05;;;13.60;99.90;;;;;;5073059;28;20021;-42
2022/10/16 05:39:52;;;;;;;12.63;3.08;;;13.70;99.90;;;;;;5086148;28;20377;-44
2022/10/16 05:42:18;;;;;;;5.65;3.70;;;13.60;99.90;;;;;;5091163;28;20450;-42
2022/10/16 05:44:43;;;;;;;8.15;3.33;;;13.60;99.90;;;;;;5091496;28;20434;-46
2022/10/16 05:47:10;;;;;;;4.05;3.33;;;13.60;99.90;;;;;;5090050;28;20477;-42
2022/10/16 05:49:36;;;;;;;5.65;2.75;;;13.60;99.90;;;;;;5091249;28;20024;-43
2022/10/16 05:52:01;;;;;;;4.40;3.38;;;13.60;99.90;;;;;;5090564;28;20024;-43
2022/10/16 05:54:27;;;;;;;5.43;3.42;;;13.60;99.90;;;;;;5090856;28;20020;-42
2022/10/16 05:56:52;;;;;;;8.82;3.42;;;13.60;99.90;;;;;;5091214;28;20025;-41
2022/10/16 05:59:18;;;;;;;10.32;3.15;;;13.60;99.90;;;;;;5066372;28;20127;-42
2022/10/16 06:01:43;;;;;;;4.55;3.30;;;13.60;99.90;;;;;;5057999;28;20021;-41
2022/10/16 06:04:09;;;;;;;7.45;3.38;;;13.60;99.90;;;;;;5063768;28;20397;-42
2022/10/16 06:06:36;;;;;;;6.43;3.42;;;13.50;99.90;;;;;;5061135;28;20027;-41
2022/10/16 06:09:01;;;;;;;4.05;3.35;;;13.50;99.90;;;;;;5062204;28;20473;-43
2022/10/16 06:11:29;;;;;;;5.38;3.40;;;13.50;99.90;;;;;;5060314;28;20094;-43
2022/10/16 06:13:57;;;;;;;5.45;3.55;;;13.60;99.90;;;;;;5069063;28;20031;-45
2022/10/16 06:16:24;;;;;;;7.15;3.53;;;13.60;99.90;;;;;;5071933;28;20466;-44
2022/10/16 06:18:55;;;;;;;5.72;4.07;;;13.60;99.90;;;;;;5071650;28;20033;-43
2022/10/16 06:21:22;;;;;;;;;;;13.60;99.90;;;;;;5071871;28;20378;-43
2022/10/16 06:23:47;;;;;;;4.57;3.30;;;13.60;99.90;;;;;;5076643;28;20345;-42
2022/10/16 06:26:16;;;;;;;5.70;3.65;;;13.70;99.90;;;;;;5090883;28;20127;-43
2022/10/16 06:28:42;;;;;;;4.78;3.40;;;13.70;99.90;;;;;;5092125;28;20024;-46
2022/10/16 06:31:09;;;;;;;8.20;3.47;;;13.70;99.90;;;;;;5092054;28;20030;-46
2022/10/16 06:33:35;;;;;;;6.32;3.63;;;13.70;99.90;;;;;;5091433;28;20031;-47
2022/10/16 06:36:12;;;;;;;4.75;3.28;;;13.70;99.90;;;;;;5091788;28;20054;-43
2022/10/16 06:38:38;;;;;;;7.10;3.42;;;13.80;99.90;;;;;;5077051;28;20089;-42
2022/10/16 06:41:05;;;;;;;8.07;3.20;;;13.80;99.90;;;;;;5071336;28;20021;-44
2022/10/16 06:43:37;;;;;;;6.38;3.00;;;13.80;99.90;;;;;;5070483;28;20082;-42
2022/10/16 06:46:04;;;;;;;5.35;2.97;;;13.80;99.90;;;;;;5071416;28;20111;-45
2022/10/16 06:48:30;;;;;;;7.82;3.17;;;13.90;99.90;;;;;;5071497;28;20028;-43
2022/10/16 06:51:09;;;;;;;6.43;3.20;;;13.80;99.90;;;;;;5071350;28;20039;-44
2022/10/16 06:53:36;;;;;;;6.93;3.03;;;13.90;99.90;;;;;;5070177;28;20573;-42
2022/10/16 06:56:08;;;;;;;6.22;3.42;;;13.90;99.90;;;;;;5062818;28;20032;-43
2022/10/16 06:58:34;;;;;;;5.30;2.42;;;13.90;99.90;;;;;;5060001;28;20077;-43
2022/10/16 07:00:59;;;;;;;4.50;2.90;;;14.00;99.90;;;;;;5060174;28;20033;-41
2022/10/16 07:03:25;;;;;;;7.10;3.33;;;14.10;99.90;;;;;;5059194;28;20020;-41
2022/10/16 07:05:50;;;;;;;6.55;3.20;;;14.10;99.90;;;;;;5058326;28;20108;-44
2022/10/16 07:08:16;;;;;;;3.38;2.55;;;14.10;99.90;;;;;;5066378;28;20024;-43
2022/10/16 07:10:41;;;;;;;10.50;3.17;;;14.10;99.90;;;;;;5069614;28;20033;-41
2022/10/16 07:13:07;;;;;;;5.43;3.00;;;14.20;99.90;;;;;;5062540;28;20440;-43
2022/10/16 07:15:33;;;;;;;5.18;3.10;;;14.20;99.90;;;;;;5058317;28;20013;-42
2022/10/16 07:17:59;;;;;;;9.57;3.58;;;14.30;99.90;;;;;;5058224;28;20490;-41
2022/10/16 07:20:24;;;;;;;3.28;2.58;;;14.30;99.90;;;;;;5060891;28;20029;-44
2022/10/16 07:22:50;;;;;;;2.92;2.50;;;14.40;99.90;;;;;;5068527;28;20020;-44
2022/10/16 07:25:16;;;;;;;11.40;3.10;;;14.50;99.90;;;;;;5081252;28;20024;-42
2022/10/16 07:27:42;;;;;;;4.70;2.85;;;14.60;99.90;;;;;;5089537;28;20024;-41
2022/10/16 07:30:08;;;;;;;5.32;2.70;;;14.70;99.90;;;;;;5089697;28;20162;-42
2022/10/16 07:32:33;;;;;;;10.48;3.22;;;14.70;99.90;;;;;;5071947;28;20033;-44
2022/10/16 07:34:58;;;;;;;3.50;2.88;;;14.80;99.90;;;;;;5068044;28;20029;-42
2022/10/16 07:37:24;;;;;;;10.77;2.78;;;14.80;99.90;;;;;;5069049;28;20033;-44
2022/10/16 07:39:49;;;;;;;4.78;2.60;;;14.90;99.90;;;;;;5060930;28;20490;-43
2022/10/16 07:42:15;;;;;;;18.15;2.63;;;14.90;99.90;;;;;;5049045;28;20021;-42
2022/10/16 07:44:40;;;;;;;4.97;2.53;;;14.90;99.90;;;;;;5049277;28;20079;-42
2022/10/16 07:47:06;;;;;;;5.13;2.30;;;15.00;99.90;;;;;;5048953;28;20036;-43
2022/10/16 07:49:31;;;;;;;2.70;2.35;;;15.10;99.90;;;;;;5057933;28;20036;-43
2022/10/16 07:51:57;;;;;;;2.80;2.08;;;15.20;99.90;;;;;;5066408;28;20059;-44
2022/10/16 07:54:22;;;;;;;4.70;2.60;;;15.30;99.90;;;;;;5076953;28;20016;-43
2022/10/16 07:56:48;;;;;;;3.90;2.30;;;15.40;99.90;;;;;;5065700;28;20106;-45
2022/10/16 07:59:13;;;;;;;3.72;2.17;;;15.50;99.90;;;;;;5067310;28;20228;-45
2022/10/16 08:01:39;;;;;;;7.38;2.63;;;15.70;99.90;;;;;;5066930;28;20037;-45
2022/10/16 08:04:05;;;;;;;10.20;2.40;;;15.70;99.90;;;;;;5067731;28;20551;-41
2022/10/16 08:06:37;;;;;;;3.38;2.40;;;15.80;99.90;;;;;;5065776;28;20024;-42
2022/10/16 08:09:03;;;;;;;4.50;2.28;;;15.80;99.90;;;;;;5070291;28;20025;-45
2022/10/16 08:11:28;;;;;;;2.92;2.30;;;15.90;99.90;;;;;;5066538;28;20036;-43
2022/10/16 08:13:54;;;;;;;4.20;2.55;;;16.00;99.90;;;;;;5067864;28;20351;-46
2022/10/16 08:16:19;;;;;;;3.83;2.55;;;16.00;99.90;;;;;;5067362;28;20401;-45
2022/10/16 08:18:45;;;;;;;2.95;2.00;;;16.20;99.90;;;;;;5067228;28;20060;-42
2022/10/16 08:21:17;;;;;;;2.72;1.90;;;16.40;99.90;;;;;;5067316;28;20020;-44
2022/10/16 08:23:44;;;;;;;4.00;2.00;;;16.60;99.90;;;;;;5065434;28;20388;-46
2022/10/16 08:26:10;;;;;;;3.20;2.17;;;16.80;99.90;;;;;;5078493;28;20219;-44
2022/10/16 08:28:35;;;;;;;7.60;2.00;;;16.90;99.90;;;;;;5089523;28;20024;-43
2022/10/16 08:31:14;;;;;;;2.42;1.58;;;17.10;99.90;;;;;;5091368;28;20025;-43
2022/10/16 08:33:42;;;;;;;3.40;1.90;;;17.00;99.90;;;;;;5088860;28;20035;-42
2022/10/16 08:36:10;;;;;;;4.25;1.77;;;16.90;99.90;;;;;;5091471;28;20035;-44
2022/10/16 08:38:35;;;;;;;3.55;1.65;;;16.90;99.90;;;;;;5084270;28;20035;-42
2022/10/16 08:41:08;;;;;;;3.67;1.80;;;17.10;99.90;;;;;;5082356;28;20275;-41
2022/10/16 08:44:00;;;;;;;2.53;1.50;;;17.10;99.90;;;;;;5090568;28;20028;-42
2022/10/16 08:46:43;;;;;;;4.38;1.30;;;17.10;99.90;;;;;;5090812;28;20491;-43
2022/10/16 08:49:13;;;;;;;3.35;1.52;;;17.30;99.90;;;;;;5089662;28;20032;-42
2022/10/16 08:51:39;;;;;;;2.25;1.20;;;17.60;99.90;;;;;;5090540;28;20074;-43
2022/10/16 08:54:12;;;;;;;2.15;1.23;;;17.80;99.90;;;;;;5090444;28;20028;-43
2022/10/16 08:56:37;;;;;;;3.40;1.40;;;18.10;99.90;;;;;;5090885;28;20031;-42
2022/10/16 08:59:09;;;;;;;6.78;1.73;;;18.40;99.90;;;;;;5091190;28;20484;-42
2022/10/16 09:01:40;;;;;;;1.95;1.40;;;18.50;99.90;;;;;;5090678;28;20395;-42
2022/10/16 09:04:42;;;;;;;5.93;1.50;;;18.50;99.90;;;;;;5086827;28;20020;-43
2022/10/16 09:07:22;;;;;;;4.03;1.73;;;18.50;99.90;;;;;;5078432;28;20452;-43
2022/10/16 09:09:51;;;;;;;1.45;1.20;;;19.20;99.90;;;;;;5091005;28;20028;-43
2022/10/16 09:12:30;;;;;;;3.00;1.70;;;19.10;99.90;;;;;;5083504;28;20059;-42
2022/10/16 09:15:20;;;;;;;3.33;1.42;;;19.40;99.90;;;;;;5070362;28;20493;-43
2022/10/16 09:18:12;;;;;;;2.78;1.20;;;19.70;99.90;;;;;;5070063;28;20028;-43
2022/10/16 09:20:42;;;;;;;3.95;1.40;;;21.40;99.90;;;;;;5069534;28;20029;-43
2022/10/16 09:23:18;;;;;;;3.65;1.23;;;22.10;99.90;;;;;;5063451;28;20410;-46
2022/10/16 09:25:47;;;;;;;1.38;0.85;;;23.40;97.80;;;;;;5080818;28;20053;-42
2022/10/16 09:28:13;;;;;;;5.17;1.13;;;23.90;95.00;;;;;;5068252;28;20043;-40
2022/10/16 09:30:39;;;;;;;3.72;0.80;;;24.50;93.30;;;;;;5070284;28;20037;-43
2022/10/16 09:33:06;;;;;;;0.90;0.80;;;24.50;92.60;;;;;;5069516;28;20024;-42
2022/10/16 09:35:39;;;;;;;1.67;0.93;;;24.00;92.90;;;;;;5070202;28;20027;-43
2022/10/16 09:38:05;;;;;;;3.00;1.13;;;23.20;93.30;;;;;;5069880;28;20021;-42
2022/10/16 09:40:34;;;;;;;6.07;0.98;;;22.50;94.70;;;;;;5068134;28;20359;-42
2022/10/16 09:43:28;;;;;;;1.27;0.77;;;21.70;95.50;;;;;;5069808;28;20031;-41
2022/10/16 09:45:56;;;;;;;2.05;0.90;;;20.80;97.40;;;;;;5069839;28;20020;-41
2022/10/16 09:48:22;;;;;;;3.97;0.93;;;20.20;98.40;;;;;;5069133;28;20025;-42
2022/10/16 09:51:03;;;;;;;1.17;0.77;;;19.90;99.70;;;;;;5069610;28;20025;-43
2022/10/16 09:53:46;;;;;;;6.25;1.27;;;20.30;99.50;;;;;;5066730;28;20111;-41
2022/10/16 09:56:24;;;;;;;3.33;0.90;;;20.60;99.00;;;;;;5080905;28;20523;-42
2022/10/16 09:58:58;;;;;;;2.40;0.80;;;20.90;99.30;;;;;;5089557;28;20144;-42
2022/10/16 10:01:37;;;;;;;1.98;1.10;;;22.50;97.20;;;;;;5088907;28;20558;-42
2022/10/16 10:04:04;;;;;;;1.30;0.77;;;24.30;94.00;;;;;;5066628;28;20016;-45
2022/10/16 10:06:42;;;;;;;10.63;1.67;;;24.90;91.50;;;;;;5057078;28;20098;-44
2022/10/16 10:09:21;;;;;;;1.58;0.60;;;25.90;91.20;;;;;;5058629;28;20028;-43
2022/10/16 10:11:54;;;;;;;4.13;0.70;;;27.30;87.50;;;;;;5054501;28;20627;-45
2022/10/16 10:14:43;;;;;;;2.10;0.90;;;27.80;83.30;;;;;;5065518;28;20071;-45
2022/10/16 10:17:22;;;;;;;2.13;0.70;;;28.40;79.50;;;;;;5057220;28;20037;-45
2022/10/16 10:19:56;;;;;;;3.95;0.85;;;28.90;75.50;;;;;;5054091;28;20531;-42
2022/10/16 10:22:45;;;;;;;4.95;0.93;;;29.20;73.30;;;;;;5049260;28;20022;-46
2022/10/16 10:25:10;;;;;;;2.78;0.75;;;27.80;75.10;;;;;;5079035;28;20063;-46
2022/10/16 10:27:44;;;;;;;1.05;0.70;;;28.70;73.90;;;;;;5090373;28;20059;-43
2022/10/16 10:30:23;;;;;;;2.65;0.75;;;27.90;75.70;;;;;;5090142;28;20028;-44
2022/10/16 10:33:13;;;;;;;1.23;0.60;;;29.40;71.40;;;;;;5089787;28;20684;-44
2022/10/16 10:35:51;;;;;;;;;;;28.50;70.60;;;;;;5090413;28;20028;-42
2022/10/16 10:38:24;;;;;;;;;;;26.20;75.80;;;;;;5090175;28;20278;-44
2022/10/16 10:40:58;;;;;;;;;;;26.40;75.70;;;;;;5090692;28;19911;-42
2022/10/16 10:43:24;;;;;;;;;;;27.50;74.30;;;;;;5089955;28;19910;-43
2022/10/16 10:45:54;;;;;;;;;;;29.00;71.20;;;;;;5090380;28;20280;-43
2022/10/16 10:48:24;;;;;;;;;;;29.50;67.60;;;;;;5090468;28;19904;-43
2022/10/16 10:50:52;;;;;;;;;;;29.00;67.80;;;;;;5090400;28;20369;-48
2022/10/16 10:53:28;;;;;;;;;;;27.50;70.80;;;;;;5077954;28;19923;-44
2022/10/16 10:56:05;;;;;;;;;;;26.70;71.60;;;;;;5082392;28;19911;-46
2022/10/16 10:58:33;;;;;;;;;;;26.40;71.30;;;;;;5090254;28;19939;-43
2022/10/16 11:01:01;;;;;;;;;;;25.30;74.20;;;;;;5090292;28;19949;-43
2022/10/16 11:03:52;;;;;;;;;;;25.20;76.00;;;;;;5089878;28;20188;-44
2022/10/16 11:06:30;;;;;;;;;;;24.50;77.30;;;;;;5090900;28;19955;-44
2022/10/16 11:09:15;;;;;;;;;;;24.00;78.60;;;;;;5090312;28;20214;-46
2022/10/16 11:11:43;;;;;;;;;;;24.00;78.80;;;;;;5089935;28;19914;-46
2022/10/16 11:14:14;;;;;;;;;;;23.50;79.70;;;;;;5090628;28;19908;-43
2022/10/16 11:16:42;;;;;;;;;;;22.90;82.60;;;;;;5090394;28;19908;-42
2022/10/16 11:19:20;;;;;;;;;;;22.60;81.90;;;;;;5090537;28;19914;-45
2022/10/16 11:22:00;;;;;;;;;;;22.30;82.70;;;;;;5089694;28;20373;-42
2022/10/16 11:24:35;;;;;;;;;;;22.10;82.80;;;;;;5072842;28;20334;-43
2022/10/16 11:27:04;;;;;;;;;;;22.20;82.60;;;;;;5087298;28;19908;-43
2022/10/16 11:29:30;;;;;;;;;;;21.80;80.70;;;;;;5090110;28;19927;-44
2022/10/16 11:32:10;;;;;;;;;;;23.00;80.80;;;;;;5089581;28;20241;-42
2022/10/16 11:34:40;;;;;;;;;;;23.90;77.80;;;;;;5089931;28;19904;-46
2022/10/16 11:37:25;;;;;;;;;;;25.10;72.40;;;;;;5090047;28;20416;-43
2022/10/16 11:39:52;;;;;;;;;;;26.70;70.00;;;;;;5089609;28;19912;-42
2022/10/16 11:42:36;;;;;;;;;;;27.40;68.40;;;;;;5089486;28;19951;-43
2022/10/16 11:45:25;;;;;;;;;;;27.60;67.30;;;;;;5089983;28;19904;-44
2022/10/16 11:48:04;;;;;;;;;;;27.40;66.20;;;;;;5080523;28;19908;-43
2022/10/16 11:50:36;;;;;;;;;;;27.70;63.50;;;;;;5089767;28;19904;-47
2022/10/16 11:53:15;;;;;;;;;;;28.00;64.60;;;;;;5077840;28;19943;-44
2022/10/16 11:55:42;;;;;;;;;;;29.10;61.00;;;;;;5081178;28;20214;-44
2022/10/16 11:58:30;;;;;;;;;;;28.90;62.80;;;;;;5089716;28;19904;-44
2022/10/16 12:01:27;;;;;;;;;;;28.60;62.90;;;;;;5089879;28;19911;-42
2022/10/16 12:04:11;;;;;;;;;;;28.30;64.50;;;;;;5073127;28;19954;-44
2022/10/16 12:06:40;;;;;;;;;;;27.50;65.50;;;;;;5053377;28;19905;-44
2022/10/16 12:09:11;;;;;;;;;;;25.90;67.40;;;;;;5053243;28;19971;-43
2022/10/16 12:11:38;;;;;;;;;;;25.60;68.30;;;;;;5051697;28;20417;-43
2022/10/16 12:14:17;;;;;;;;;;;25.40;70.80;;;;;;5053264;28;19974;-43
2022/10/16 12:16:52;;;;;;;;;;;24.70;71.70;;;;;;5053406;28;19911;-43
2022/10/16 12:19:18;;;;;;;;;;;23.60;73.50;;;;;;5053122;28;19909;-42
2022/10/16 12:21:44;;;;;;;;;;;23.40;74.30;;;;;;5052657;28;20361;-43
2022/10/16 12:24:21;;;;;;;;;;;23.10;75.50;;;;;;5070790;28;19923;-43
2022/10/16 12:26:46;;;;;;;;;;;22.50;78.20;;;;;;5088190;28;19904;-44
2022/10/16 12:29:35;;;;;;;;;;;22.70;77.50;;;;;;5093213;28;20501;-43
2022/10/16 12:32:01;;;;;;;;;;;23.00;77.40;;;;;;5086836;28;20345;-43
2022/10/16 12:34:28;;;;;;;;;;;23.20;76.40;;;;;;5093226;28;20024;-44
2022/10/16 12:36:54;;;;;;;;;;;23.50;75.10;;;;;;5093262;28;19911;-44
2022/10/16 12:39:23;;;;;;;;;;;23.20;74.00;;;;;;5092631;28;19934;-43
2022/10/16 12:41:59;;;;;;;;;;;23.60;74.80;;;;;;5092507;28;19957;-45
2022/10/16 12:44:28;;;;;;;;;;;23.90;73.50;;;;;;5092925;28;19904;-46
2022/10/16 12:46:53;;;;;;;;;;;24.00;73.80;;;;;;5091876;28;20162;-45
2022/10/16 12:49:28;;;;;;;;;;;24.20;73.40;;;;;;5091808;28;19904;-41
2022/10/16 12:51:53;;;;;;;;;;;24.10;73.50;;;;;;5092867;28;19908;-42
2022/10/16 12:54:35;;;;;;;;;;;24.10;72.70;;;;;;5079078;28;19983;-42
2022/10/16 12:57:09;;;;;;;;;;;24.30;73.40;;;;;;5089639;28;19908;-44
2022/10/16 12:59:45;;;;;;;;;;;23.70;72.20;;;;;;5092656;28;20301;-46
2022/10/16 13:02:29;;;;;;;;;;;23.20;72.80;;;;;;5092387;28;19907;-44
2022/10/16 13:04:58;;;;;;;;;;;23.30;72.90;;;;;;5091478;28;19910;-43
2022/10/16 13:07:43;;;;;;;;;;;23.40;73.40;;;;;;5091535;28;20322;-43
2022/10/16 13:10:28;;;;;;;;;;;23.30;71.80;;;;;;5092570;28;20408;-46
2022/10/16 13:13:13;;;;;;;;;;;23.00;72.00;;;;;;5091517;28;19912;-44
2022/10/16 13:15:53;;;;;;;;;;;22.60;74.10;;;;;;5092408;28;20571;-47
2022/10/16 13:18:28;;;;;;;;;;;22.60;75.00;;;;;;5092435;28;19904;-42